Time,TemperatureF,DewpointF,PressureIn,WindDirection,WindDirectionDegrees,WindSpeedMPH,WindSpeedGustMPH,Humidity,HourlyPrecipIn,Conditions,Clouds,dailyrainin,SoftwareType,DateUTC
2013-03-14 00:02:00,44.0,30.0,29.99,SSW,203,8.0,-999.0,58,-99.99,,,-99.99,,2013-03-14 06:02:00,
2013-03-14 00:12:00,44.0,29.0,29.99,SSW,208,10.0,-999.0,56,-99.99,,,-99.99,,2013-03-14 06:12:00,
2013-03-14 00:22:00,44.0,29.0,30.00,SSW,205,10.0,-999.0,55,-99.99,,,-99.99,,2013-03-14 06:22:00,
2013-03-14 00:32:00,44.0,29.0,30.00,SSW,210,10.0,-999.0,56,-99.99,,,-99.99,,2013-03-14 06:32:00,
2013-03-14 00:42:00,42.0,29.0,29.99,SSW,204,11.0,-999.0,58,-99.99,,,-99.99,,2013-03-14 06:42:00,
2013-03-14 00:52:00,42.0,29.0,29.99,SW,216,11.0,-999.0,59,-99.99,,,-99.99,,2013-03-14 06:52:00,
2013-03-14 01:02:00,44.0,28.0,29.99,SW,218,10.0,-999.0,55,-99.99,,,-99.99,,2013-03-14 07:02:00,
2013-03-14 01:12:00,43.0,29.0,29.99,SW,223,10.0,-999.0,56,-99.99,,,-99.99,,2013-03-14 07:12:00,
2013-03-14 01:22:00,44.0,28.0,30.01,SW,231,9.0,-999.0,53,-99.99,,,-99.99,,2013-03-14 07:22:00,
2013-03-14 01:32:00,44.0,27.0,30.02,West,265,9.0,-999.0,51,-99.99,,,-99.99,,2013-03-14 07:32:00,
2013-03-14 01:42:00,43.0,26.0,30.01,WSW,251,11.0,-999.0,52,-99.99,,,-99.99,,2013-03-14 07:42:00,
2013-03-14 01:52:00,43.0,25.0,30.00,WSW,248,10.0,-999.0,48,-99.99,,,-99.99,,2013-03-14 07:52:00,
2013-03-14 02:02:00,43.0,25.0,30.01,WSW,239,11.0,-999.0,48,-99.99,,,-99.99,,2013-03-14 08:02:00,
2013-03-14 02:12:00,42.0,24.0,30.01,WSW,237,12.0,-999.0,49,-99.99,,,-99.99,,2013-03-14 08:12:00,
2013-03-14 02:22:00,43.0,24.0,30.03,WSW,242,11.0,-999.0,46,-99.99,,,-99.99,,2013-03-14 08:22:00,
2013-03-14 02:32:00,43.0,24.0,30.03,WSW,242,11.0,-999.0,46,-99.99,,,-99.99,,2013-03-14 08:32:00,
2013-03-14 02:42:00,44.0,23.0,30.04,West,263,11.0,-999.0,43,-99.99,,,-99.99,,2013-03-14 08:42:00,
2013-03-14 02:52:00,44.0,23.0,30.05,WNW,287,10.0,-999.0,43,-99.99,,,-99.99,,2013-03-14 08:52:00,
2013-03-14 03:01:00,45.0,22.0,30.06,West,281,9.0,-999.0,41,-99.99,,,-99.99,,2013-03-14 09:01:00,
2013-03-14 03:12:00,44.0,22.0,30.05,WNW,284,9.0,-999.0,42,-99.99,,,-99.99,,2013-03-14 09:12:00,
2013-03-14 03:22:00,44.0,22.0,30.06,WNW,289,9.0,-999.0,42,-99.99,,,-99.99,,2013-03-14 09:22:00,
2013-03-14 03:32:00,44.0,22.0,30.05,WNW,288,7.0,-999.0,42,-99.99,,,-99.99,,2013-03-14 09:32:00,
2013-03-14 03:42:00,43.0,22.0,30.05,WNW,288,8.0,-999.0,43,-99.99,,,-99.99,,2013-03-14 09:42:00,
2013-03-14 03:52:00,43.0,23.0,30.06,WNW,298,7.0,-999.0,44,-99.99,,,-99.99,,2013-03-14 09:52:00,
2013-03-14 04:02:00,43.0,22.0,30.06,NW,308,7.0,-999.0,44,-99.99,,,-99.99,,2013-03-14 10:02:00,
2013-03-14 04:12:00,43.0,22.0,30.06,WNW,301,8.0,-999.0,43,-99.99,,,-99.99,,2013-03-14 10:12:00,
2013-03-14 04:22:00,43.0,22.0,30.06,WNW,287,7.0,-999.0,43,-99.99,,,-99.99,,2013-03-14 10:22:00,
2013-03-14 04:32:00,43.0,23.0,30.06,West,269,7.0,-999.0,45,-99.99,,,-99.99,,2013-03-14 10:32:00,
2013-03-14 04:42:00,42.0,23.0,30.06,West,261,6.0,-999.0,46,-99.99,,,-99.99,,2013-03-14 10:42:00,
2013-03-14 04:52:00,40.0,23.0,30.06,WSW,242,9.0,-999.0,50,-99.99,,,-99.99,,2013-03-14 10:52:00,
2013-03-14 05:02:00,40.0,23.0,30.06,WSW,248,9.0,-999.0,49,-99.99,,,-99.99,,2013-03-14 11:02:00,
2013-03-14 05:12:00,41.0,23.0,30.07,West,265,9.0,-999.0,49,-99.99,,,-99.99,,2013-03-14 11:12:00,
2013-03-14 05:22:00,42.0,23.0,30.08,WNW,283,8.0,-999.0,46,-99.99,,,-99.99,,2013-03-14 11:22:00,
2013-03-14 05:33:00,43.0,23.0,30.06,WNW,286,7.0,-999.0,45,-99.99,,,-99.99,,2013-03-14 11:33:00,
2013-03-14 05:42:00,42.0,23.0,30.09,WNW,284,7.0,-999.0,47,-99.99,,,-99.99,,2013-03-14 11:42:00,
2013-03-14 05:52:00,42.0,23.0,30.10,West,278,8.0,-999.0,48,-99.99,,,-99.99,,2013-03-14 11:52:00,
2013-03-14 06:02:00,42.0,23.0,30.09,West,280,8.0,-999.0,48,-99.99,,,-99.99,,2013-03-14 12:02:00,
2013-03-14 06:12:00,42.0,23.0,30.08,WNW,291,10.0,-999.0,48,-99.99,,,-99.99,,2013-03-14 12:12:00,
2013-03-14 06:22:00,42.0,24.0,30.08,West,276,10.0,-999.0,49,-99.99,,,-99.99,,2013-03-14 12:22:00,
2013-03-14 06:33:00,42.0,24.0,30.10,WNW,283,12.0,-999.0,48,-99.99,,,-99.99,,2013-03-14 12:33:00,
2013-03-14 06:42:00,42.0,24.0,30.09,West,280,12.0,-999.0,48,-99.99,,,-99.99,,2013-03-14 12:42:00,
2013-03-14 06:52:00,42.0,24.0,30.11,WNW,289,11.0,-999.0,50,-99.99,,,-99.99,,2013-03-14 12:52:00,
2013-03-14 07:02:00,41.0,24.0,30.10,WSW,245,8.0,-999.0,51,-99.99,,,-99.99,,2013-03-14 13:02:00,
2013-03-14 07:12:00,40.0,24.0,30.10,West,269,12.0,-999.0,53,-99.99,,,-99.99,,2013-03-14 13:12:00,
2013-03-14 07:22:00,40.0,24.0,30.11,West,276,11.0,-999.0,53,-99.99,,,-99.99,,2013-03-14 13:22:00,
2013-03-14 07:32:00,40.0,25.0,30.11,West,276,9.0,-999.0,53,-99.99,,,-99.99,,2013-03-14 13:32:00,
2013-03-14 07:42:00,40.0,24.0,30.12,West,275,11.0,-999.0,53,-99.99,,,-99.99,,2013-03-14 13:42:00,
2013-03-14 07:52:00,39.0,24.0,30.11,West,269,12.0,-999.0,55,-99.99,,,-99.99,,2013-03-14 13:52:00,
2013-03-14 08:02:00,39.0,24.0,30.12,WSW,249,11.0,-999.0,55,-99.99,,,-99.99,,2013-03-14 14:02:00,
2013-03-14 08:12:00,39.0,24.0,30.11,WSW,248,11.0,-999.0,55,-99.99,,,-99.99,,2013-03-14 14:12:00,
2013-03-14 08:22:00,41.0,25.0,30.13,West,261,11.0,-999.0,53,-99.99,,,-99.99,,2013-03-14 14:22:00,
2013-03-14 08:32:00,42.0,26.0,30.13,West,268,12.0,-999.0,52,-99.99,,,-99.99,,2013-03-14 14:32:00,
2013-03-14 08:42:00,43.0,26.0,30.13,West,264,9.0,-999.0,51,-99.99,,,-99.99,,2013-03-14 14:42:00,
2013-03-14 08:52:00,44.0,26.0,30.13,West,278,10.0,-999.0,49,-99.99,,,-99.99,,2013-03-14 14:52:00,
2013-03-14 09:02:00,45.0,26.0,30.14,West,278,11.0,-999.0,47,-99.99,,,-99.99,,2013-03-14 15:02:00,
2013-03-14 09:12:00,47.0,27.0,30.14,West,276,8.0,-999.0,46,-99.99,,,-99.99,,2013-03-14 15:12:00,
2013-03-14 09:22:00,49.0,27.0,30.14,West,269,9.0,-999.0,43,-99.99,,,-99.99,,2013-03-14 15:22:00,
2013-03-14 09:33:00,49.0,27.0,30.14,West,269,9.0,-999.0,43,-99.99,,,-99.99,,2013-03-14 15:33:00,
2013-03-14 09:43:00,49.0,27.0,30.14,West,269,9.0,-999.0,43,-99.99,,,-99.99,,2013-03-14 15:43:00,
2013-03-14 09:52:00,49.0,27.0,30.14,West,269,9.0,-999.0,43,-99.99,,,-99.99,,2013-03-14 15:52:00,
2013-03-14 11:12:00,57.0,27.0,30.10,SW,223,11.0,-999.0,31,-99.99,,,-99.99,,2013-03-14 17:12:00,
2013-03-14 11:23:00,57.0,26.0,30.09,WSW,244,10.0,-999.0,30,-99.99,,,-99.99,,2013-03-14 17:23:00,
2013-03-14 11:32:00,59.0,26.0,30.10,WSW,249,13.0,-999.0,28,-99.99,,,-99.99,,2013-03-14 17:32:00,
2013-03-14 11:42:00,59.0,26.0,30.10,WSW,243,12.0,-999.0,28,-99.99,,,-99.99,,2013-03-14 17:42:00,
2013-03-14 11:52:00,60.0,26.0,30.11,WSW,237,15.0,-999.0,28,-99.99,,,-99.99,,2013-03-14 17:52:00,
2013-03-14 12:03:00,60.0,25.0,30.11,WSW,241,14.0,-999.0,26,-99.99,,,-99.99,,2013-03-14 18:03:00,
2013-03-14 12:12:00,60.0,24.0,30.11,SW,236,7.0,-999.0,25,-99.99,,,-99.99,,2013-03-14 18:12:00,
2013-03-14 12:22:00,61.0,25.0,30.09,WSW,242,12.0,-999.0,25,-99.99,,,-99.99,,2013-03-14 18:22:00,
2013-03-14 12:33:00,62.0,25.0,30.09,SW,225,11.0,-999.0,24,-99.99,,,-99.99,,2013-03-14 18:33:00,
2013-03-14 12:43:00,62.0,25.0,30.09,WSW,248,15.0,-999.0,24,-99.99,,,-99.99,,2013-03-14 18:43:00,
2013-03-14 12:52:00,62.0,24.0,30.09,WSW,247,11.0,-999.0,23,-99.99,,,-99.99,,2013-03-14 18:52:00,
2013-03-14 13:03:00,62.0,24.0,30.09,WSW,247,11.0,-999.0,23,-99.99,,,-99.99,,2013-03-14 19:03:00,
2013-03-14 13:12:00,62.0,24.0,30.09,WSW,240,14.0,-999.0,23,-99.99,,,-99.99,,2013-03-14 19:12:00,
2013-03-14 13:23:00,64.0,24.0,30.10,West,265,17.0,-999.0,22,-99.99,,,-99.99,,2013-03-14 19:23:00,
2013-03-14 13:32:00,64.0,24.0,30.08,WSW,255,17.0,-999.0,22,-99.99,,,-99.99,,2013-03-14 19:32:00,
2013-03-14 13:42:00,64.0,24.0,30.08,WSW,255,17.0,-999.0,22,-99.99,,,-99.99,,2013-03-14 19:42:00,
2013-03-14 13:52:00,64.0,24.0,30.08,WSW,255,17.0,-999.0,22,-99.99,,,-99.99,,2013-03-14 19:52:00,
2013-03-14 14:32:00,66.0,24.0,30.04,WSW,249,9.0,-999.0,20,-99.99,,,-99.99,,2013-03-14 20:32:00,
2013-03-14 14:42:00,66.0,23.0,30.03,WSW,255,12.0,-999.0,19,-99.99,,,-99.99,,2013-03-14 20:42:00,
2013-03-14 14:52:00,66.0,23.0,30.03,WSW,244,10.0,-999.0,19,-99.99,,,-99.99,,2013-03-14 20:52:00,
2013-03-14 15:02:00,67.0,23.0,30.04,West,269,4.0,-999.0,19,-99.99,,,-99.99,,2013-03-14 21:02:00,
2013-03-14 15:12:00,67.0,22.0,30.00,West,260,9.0,-999.0,18,-99.99,,,-99.99,,2013-03-14 21:12:00,
2013-03-14 15:22:00,68.0,22.0,30.00,WSW,252,18.0,-999.0,17,-99.99,,,-99.99,,2013-03-14 21:22:00,
2013-03-14 15:32:00,68.0,22.0,30.01,WNW,301,18.0,-999.0,17,-99.99,,,-99.99,,2013-03-14 21:32:00,
2013-03-14 15:43:00,68.0,22.0,30.00,WNW,295,16.0,-999.0,17,-99.99,,,-99.99,,2013-03-14 21:43:00,
2013-03-14 15:53:00,68.0,22.0,30.01,NW,308,13.0,-999.0,17,-99.99,,,-99.99,,2013-03-14 21:53:00,
2013-03-14 16:03:00,67.0,21.0,30.00,WNW,298,11.0,-999.0,17,-99.99,,,-99.99,,2013-03-14 22:03:00,
2013-03-14 16:13:00,68.0,21.0,29.99,NW,314,10.0,-999.0,17,-99.99,,,-99.99,,2013-03-14 22:13:00,
2013-03-14 16:23:00,69.0,21.0,29.98,NNW,341,11.0,-999.0,16,-99.99,,,-99.99,,2013-03-14 22:23:00,
2013-03-14 16:33:00,69.0,21.0,29.97,WNW,301,10.0,-999.0,16,-99.99,,,-99.99,,2013-03-14 22:33:00,
2013-03-14 16:42:00,69.0,21.0,29.99,West,280,4.0,-999.0,16,-99.99,,,-99.99,,2013-03-14 22:42:00,
2013-03-14 16:52:00,71.0,21.0,29.99,NNW,336,7.0,-999.0,15,-99.99,,,-99.99,,2013-03-14 22:52:00,
2013-03-14 17:02:00,71.0,21.0,29.99,NNW,336,7.0,-999.0,15,-99.99,,,-99.99,,2013-03-14 23:02:00,
2013-03-14 17:12:00,69.0,21.0,29.99,NE,39,3.0,-999.0,16,-99.99,,,-99.99,,2013-03-14 23:12:00,
2013-03-14 17:22:00,68.0,20.0,29.97,NW,304,3.0,-999.0,16,-99.99,,,-99.99,,2013-03-14 23:22:00,
2013-03-14 17:33:00,69.0,22.0,29.97,NNE,26,12.0,-999.0,17,-99.99,,,-99.99,,2013-03-14 23:33:00,
2013-03-14 17:42:00,67.0,22.0,29.97,NE,54,7.0,-999.0,18,-99.99,,,-99.99,,2013-03-14 23:42:00,
2013-03-14 17:53:00,66.0,22.0,29.96,ENE,70,6.0,-999.0,18,-99.99,,,-99.99,,2013-03-14 23:53:00,
2013-03-14 18:02:00,66.0,22.0,29.96,ENE,70,6.0,-999.0,18,-99.99,,,-99.99,,2013-03-15 00:02:00,
2013-03-14 18:12:00,65.0,23.0,29.96,NE,48,6.0,-999.0,20,-99.99,,,-99.99,,2013-03-15 00:12:00,
2013-03-14 18:23:00,64.0,23.0,29.97,NE,46,8.0,-999.0,21,-99.99,,,-99.99,,2013-03-15 00:23:00,
2013-03-14 18:32:00,64.0,24.0,29.94,NE,43,8.0,-999.0,22,-99.99,,,-99.99,,2013-03-15 00:32:00,
2013-03-14 18:42:00,63.0,25.0,29.96,ENE,60,7.0,-999.0,23,-99.99,,,-99.99,,2013-03-15 00:42:00,
2013-03-14 18:52:00,62.0,24.0,29.95,ENE,65,7.0,-999.0,23,-99.99,,,-99.99,,2013-03-15 00:52:00,
2013-03-14 19:02:00,62.0,24.0,29.97,East,81,6.0,-999.0,23,-99.99,,,-99.99,,2013-03-15 01:02:00,
2013-03-14 19:12:00,62.0,23.0,29.96,ENE,78,8.0,-999.0,22,-99.99,,,-99.99,,2013-03-15 01:12:00,
2013-03-14 19:22:00,61.0,23.0,29.96,East,88,9.0,-999.0,23,-99.99,,,-99.99,,2013-03-15 01:22:00,
2013-03-14 19:32:00,60.0,24.0,29.95,East,95,10.0,-999.0,25,-99.99,,,-99.99,,2013-03-15 01:32:00,
2013-03-14 19:42:00,58.0,24.0,29.95,East,99,10.0,-999.0,26,-99.99,,,-99.99,,2013-03-15 01:42:00,
2013-03-14 19:52:00,58.0,23.0,29.94,East,96,11.0,-999.0,26,-99.99,,,-99.99,,2013-03-15 01:52:00,
2013-03-14 20:02:00,58.0,23.0,29.95,East,97,11.0,-999.0,25,-99.99,,,-99.99,,2013-03-15 02:02:00,
2013-03-14 20:12:00,58.0,22.0,29.95,ESE,104,10.0,-999.0,25,-99.99,,,-99.99,,2013-03-15 02:12:00,
2013-03-14 20:22:00,58.0,23.0,29.95,ESE,106,10.0,-999.0,26,-99.99,,,-99.99,,2013-03-15 02:22:00,
2013-03-14 20:32:00,58.0,23.0,29.96,ESE,108,9.0,-999.0,25,-99.99,,,-99.99,,2013-03-15 02:32:00,
2013-03-14 20:42:00,58.0,22.0,29.94,ESE,113,10.0,-999.0,25,-99.99,,,-99.99,,2013-03-15 02:42:00,
2013-03-14 20:52:00,59.0,22.0,29.94,SE,126,12.0,-999.0,24,-99.99,,,-99.99,,2013-03-15 02:52:00,
2013-03-14 21:02:00,57.0,23.0,29.93,SE,131,14.0,-999.0,26,-99.99,,,-99.99,,2013-03-15 03:02:00,
2013-03-14 21:12:00,57.0,22.0,29.93,SE,130,13.0,-999.0,26,-99.99,,,-99.99,,2013-03-15 03:12:00,
2013-03-14 21:22:00,55.0,23.0,29.93,SE,141,12.0,-999.0,28,-99.99,,,-99.99,,2013-03-15 03:22:00,
2013-03-14 21:33:00,55.0,23.0,29.94,SE,141,12.0,-999.0,29,-99.99,,,-99.99,,2013-03-15 03:33:00,
2013-03-14 21:43:00,55.0,23.0,29.95,SE,145,11.0,-999.0,29,-99.99,,,-99.99,,2013-03-15 03:43:00,
2013-03-14 21:52:00,55.0,23.0,29.92,SSE,148,10.0,-999.0,28,-99.99,,,-99.99,,2013-03-15 03:52:00,
2013-03-14 22:03:00,55.0,23.0,29.93,SSE,149,9.0,-999.0,29,-99.99,,,-99.99,,2013-03-15 04:03:00,
2013-03-14 22:12:00,55.0,23.0,29.93,SSE,152,10.0,-999.0,29,-99.99,,,-99.99,,2013-03-15 04:12:00,
2013-03-14 22:23:00,55.0,24.0,29.92,SSE,157,11.0,-999.0,29,-99.99,,,-99.99,,2013-03-15 04:23:00,
2013-03-14 22:32:00,55.0,24.0,29.90,SSE,158,11.0,-999.0,30,-99.99,,,-99.99,,2013-03-15 04:32:00,
2013-03-14 22:43:00,55.0,24.0,29.90,SSE,158,11.0,-999.0,30,-99.99,,,-99.99,,2013-03-15 04:43:00,
2013-03-14 22:52:00,55.0,24.0,29.92,South,170,13.0,-999.0,30,-99.99,,,-99.99,,2013-03-15 04:52:00,
2013-03-14 23:02:00,54.0,25.0,29.92,South,172,14.0,-999.0,32,-99.99,,,-99.99,,2013-03-15 05:02:00,
2013-03-14 23:12:00,54.0,25.0,29.92,South,179,12.0,-999.0,32,-99.99,,,-99.99,,2013-03-15 05:12:00,
2013-03-14 23:22:00,54.0,24.0,29.91,South,188,10.0,-999.0,32,-99.99,,,-99.99,,2013-03-15 05:22:00,
2013-03-14 23:32:00,53.0,26.0,29.91,SSW,198,9.0,-999.0,35,-99.99,,,-99.99,,2013-03-15 05:32:00,
2013-03-14 23:42:00,52.0,25.0,29.90,South,182,10.0,-999.0,34,-99.99,,,-99.99,,2013-03-15 05:42:00,
2013-03-14 23:52:00,53.0,25.0,29.91,South,185,10.0,-999.0,34,-99.99,,,-99.99,,2013-03-15 05:52:00,